sensor_id;sensor_type;location;lat;lon;timestamp;pressure;altitude;pressure_sealevel;temperature;humidity
64841;BME280;51307;52.162;7.560;2022-08-01T00:00:38;100982.97;;;18.71;92.76
64841;BME280;51307;52.162;7.560;2022-08-01T00:03:04;100992.91;;;18.62;92.89
64841;BME280;51307;52.162;7.560;2022-08-01T00:05:30;100992.53;;;18.59;92.62
64841;BME280;51307;52.162;7.560;2022-08-01T00:07:55;100992.09;;;18.55;92.85
64841;BME280;51307;52.162;7.560;2022-08-01T00:10:21;100989.25;;;18.50;92.00
64841;BME280;51307;52.162;7.560;2022-08-01T00:12:46;100989.44;;;18.48;92.37
64841;BME280;51307;52.162;7.560;2022-08-01T00:15:14;100994.75;;;18.48;92.54
64841;BME280;51307;52.162;7.560;2022-08-01T00:17:41;100989.63;;;18.47;92.07
64841;BME280;51307;52.162;7.560;2022-08-01T00:20:09;101003.66;;;18.47;91.84
64841;BME280;51307;52.162;7.560;2022-08-01T00:22:35;101003.28;;;18.44;91.64
64841;BME280;51307;52.162;7.560;2022-08-01T00:25:01;100994.28;;;18.38;92.25
64841;BME280;51307;52.162;7.560;2022-08-01T00:27:27;100999.38;;;18.33;92.66
64841;BME280;51307;52.162;7.560;2022-08-01T00:29:52;100999.56;;;18.31;92.96
64841;BME280;51307;52.162;7.560;2022-08-01T00:32:18;100998.13;;;18.29;93.23
64841;BME280;51307;52.162;7.560;2022-08-01T00:34:45;101009.13;;;18.33;93.39
64841;BME280;51307;52.162;7.560;2022-08-01T00:37:10;101001.41;;;18.31;93.39
64841;BME280;51307;52.162;7.560;2022-08-01T00:39:36;101012.78;;;18.31;93.60
64841;BME280;51307;52.162;7.560;2022-08-01T00:42:10;101000.78;;;18.29;93.23
64841;BME280;51307;52.162;7.560;2022-08-01T00:44:36;101006.06;;;18.29;93.07
64841;BME280;51307;52.162;7.560;2022-08-01T00:47:03;101006.84;;;18.23;93.13
64841;BME280;51307;52.162;7.560;2022-08-01T00:49:29;100999.50;;;18.18;92.83
64841;BME280;51307;52.162;7.560;2022-08-01T00:51:55;101002.72;;;18.14;93.46
64841;BME280;51307;52.162;7.560;2022-08-01T00:54:23;101004.56;;;18.13;93.77
64841;BME280;51307;52.162;7.560;2022-08-01T00:56:49;101003.94;;;18.11;93.50
64841;BME280;51307;52.162;7.560;2022-08-01T00:59:17;101004.97;;;18.10;93.61
64841;BME280;51307;52.162;7.560;2022-08-01T01:01:43;101004.72;;;18.05;93.33
64841;BME280;51307;52.162;7.560;2022-08-01T01:04:08;101005.16;;;18.08;93.32
64841;BME280;51307;52.162;7.560;2022-08-01T01:12:01;101008.78;;;18.01;93.77
64841;BME280;51307;52.162;7.560;2022-08-01T01:17:21;101011.41;;;18.01;94.16
64841;BME280;51307;52.162;7.560;2022-08-01T01:19:54;101010.41;;;18.02;94.13
64841;BME280;51307;52.162;7.560;2022-08-01T01:25:09;101011.84;;;18.04;94.05
64841;BME280;51307;52.162;7.560;2022-08-01T01:27:50;101012.66;;;18.05;93.68
64841;BME280;51307;52.162;7.560;2022-08-01T01:30:17;101010.41;;;18.02;93.72
64841;BME280;51307;52.162;7.560;2022-08-01T01:32:47;101012.81;;;17.97;93.84
64841;BME280;51307;52.162;7.560;2022-08-01T01:35:26;101016.06;;;17.99;93.97
64841;BME280;51307;52.162;7.560;2022-08-01T01:37:58;101018.09;;;17.97;93.98
64841;BME280;51307;52.162;7.560;2022-08-01T01:40:25;101020.56;;;17.98;93.99
64841;BME280;51307;52.162;7.560;2022-08-01T01:42:55;101017.72;;;18.00;94.05
64841;BME280;51307;52.162;7.560;2022-08-01T01:45:23;101019.34;;;18.01;94.45
64841;BME280;51307;52.162;7.560;2022-08-01T01:47:50;101020.19;;;18.01;94.01
64841;BME280;51307;52.162;7.560;2022-08-01T01:50:20;101022.81;;;18.01;93.95
64841;BME280;51307;52.162;7.560;2022-08-01T01:52:47;101018.72;;;17.99;94.07
64841;BME280;51307;52.162;7.560;2022-08-01T01:55:15;101017.09;;;17.98;94.06
64841;BME280;51307;52.162;7.560;2022-08-01T01:57:44;101013.03;;;17.95;94.05
64841;BME280;51307;52.162;7.560;2022-08-01T02:00:12;101016.06;;;17.99;94.14
64841;BME280;51307;52.162;7.560;2022-08-01T02:02:40;101012.00;;;17.96;94.31
64841;BME280;51307;52.162;7.560;2022-08-01T02:05:10;101008.56;;;17.96;94.40
64841;BME280;51307;52.162;7.560;2022-08-01T02:07:37;101020.75;;;17.97;94.60
64841;BME280;51307;52.162;7.560;2022-08-01T02:10:05;101013.66;;;17.97;94.44
64841;BME280;51307;52.162;7.560;2022-08-01T02:12:36;101008.78;;;18.01;94.72
64841;BME280;51307;52.162;7.560;2022-08-01T02:15:03;101009.59;;;18.01;94.25
64841;BME280;51307;52.162;7.560;2022-08-01T02:17:30;101010.59;;;18.00;94.28
64841;BME280;51307;52.162;7.560;2022-08-01T02:19:57;101009.97;;;17.98;94.64
64841;BME280;51307;52.162;7.560;2022-08-01T02:22:34;101012.81;;;17.97;94.36
64841;BME280;51307;52.162;7.560;2022-08-01T02:28:06;101013.63;;;17.90;94.60
64841;BME280;51307;52.162;7.560;2022-08-01T02:30:36;101017.25;;;17.89;94.93
64841;BME280;51307;52.162;7.560;2022-08-01T02:33:10;101016.03;;;17.92;95.13
64841;BME280;51307;52.162;7.560;2022-08-01T02:35:40;101014.44;;;17.91;95.28
64841;BME280;51307;52.162;7.560;2022-08-01T02:38:10;101017.06;;;17.91;95.30
64841;BME280;51307;52.162;7.560;2022-08-01T02:40:41;101019.53;;;17.93;95.42
64841;BME280;51307;52.162;7.560;2022-08-01T02:43:10;101020.72;;;17.90;95.37
64841;BME280;51307;52.162;7.560;2022-08-01T02:45:43;101019.53;;;17.93;95.75
64841;BME280;51307;52.162;7.560;2022-08-01T02:48:12;101025.22;;;17.96;95.63
64841;BME280;51307;52.162;7.560;2022-08-01T02:50:42;101028.88;;;17.95;96.03
64841;BME280;51307;52.162;7.560;2022-08-01T02:53:09;101023.59;;;17.95;96.38
64841;BME280;51307;52.162;7.560;2022-08-01T02:55:39;101032.16;;;17.97;96.34
64841;BME280;51307;52.162;7.560;2022-08-01T02:58:07;101029.50;;;17.97;96.53
64841;BME280;51307;52.162;7.560;2022-08-01T03:00:35;101030.31;;;17.98;96.52
64841;BME280;51307;52.162;7.560;2022-08-01T03:03:05;101024.41;;;17.96;96.40
64841;BME280;51307;52.162;7.560;2022-08-01T03:05:31;101028.25;;;17.93;96.24
64841;BME280;51307;52.162;7.560;2022-08-01T03:07:59;101029.88;;;17.94;96.57
64841;BME280;51307;52.162;7.560;2022-08-01T03:10:28;101033.34;;;17.95;96.39
64841;BME280;51307;52.162;7.560;2022-08-01T03:12:55;101040.03;;;17.90;96.43
64841;BME280;51307;52.162;7.560;2022-08-01T03:15:26;101037.16;;;17.85;96.70
64841;BME280;51307;52.162;7.560;2022-08-01T03:17:58;101035.91;;;17.81;96.83
64841;BME280;51307;52.162;7.560;2022-08-01T03:20:27;101035.09;;;17.81;97.27
64841;BME280;51307;52.162;7.560;2022-08-01T03:22:57;101035.09;;;17.81;97.20
64841;BME280;51307;52.162;7.560;2022-08-01T03:25:26;101039.75;;;17.79;97.48
64841;BME280;51307;52.162;7.560;2022-08-01T03:27:56;101028.16;;;17.73;97.58
64841;BME280;51307;52.162;7.560;2022-08-01T03:30:25;101036.50;;;17.77;97.68
64841;BME280;51307;52.162;7.560;2022-08-01T03:32:52;101033.84;;;17.77;97.76
64841;BME280;51307;52.162;7.560;2022-08-01T03:35:18;101035.69;;;17.76;97.60
64841;BME280;51307;52.162;7.560;2022-08-01T03:37:47;101032.22;;;17.76;97.99
64841;BME280;51307;52.162;7.560;2022-08-01T03:40:31;101038.13;;;17.78;97.68
64841;BME280;51307;52.162;7.560;2022-08-01T03:43:07;101036.91;;;17.80;97.30
64841;BME280;51307;52.162;7.560;2022-08-01T03:45:41;101036.13;;;17.80;97.27
64841;BME280;51307;52.162;7.560;2022-08-01T03:48:17;101036.13;;;17.80;97.37
64841;BME280;51307;52.162;7.560;2022-08-01T03:50:46;101033.66;;;17.78;97.25
64841;BME280;51307;52.162;7.560;2022-08-01T03:53:14;101042.41;;;17.79;97.36
64841;BME280;51307;52.162;7.560;2022-08-01T03:55:43;101038.75;;;17.80;97.78
64841;BME280;51307;52.162;7.560;2022-08-01T03:58:10;101036.13;;;17.80;97.61
64841;BME280;51307;52.162;7.560;2022-08-01T04:00:38;101042.84;;;17.82;97.66
64841;BME280;51307;52.162;7.560;2022-08-01T04:03:07;101033.88;;;17.83;97.85
64841;BME280;51307;52.162;7.560;2022-08-01T04:05:33;101039.56;;;17.80;97.52
64841;BME280;51307;52.162;7.560;2022-08-01T04:07:59;101038.94;;;17.78;97.47
64841;BME280;51307;52.162;7.560;2022-08-01T04:10:27;101046.06;;;17.78;97.48
64841;BME280;51307;52.162;7.560;2022-08-01T04:12:53;101050.09;;;17.74;97.64
64841;BME280;51307;52.162;7.560;2022-08-01T04:15:19;101052.28;;;17.70;98.08
64841;BME280;51307;52.162;7.560;2022-08-01T04:17:49;101050.50;;;17.70;98.53
64841;BME280;51307;52.162;7.560;2022-08-01T04:20:14;101050.91;;;17.74;98.54
64841;BME280;51307;52.162;7.560;2022-08-01T04:22:41;101047.00;;;17.70;98.31
64841;BME280;51307;52.162;7.560;2022-08-01T04:25:12;101054.56;;;17.73;98.45
64841;BME280;51307;52.162;7.560;2022-08-01T04:27:45;101055.56;;;17.72;98.33
64841;BME280;51307;52.162;7.560;2022-08-01T04:30:13;101055.78;;;17.70;98.47
64841;BME280;51307;52.162;7.560;2022-08-01T04:32:44;101053.94;;;17.71;98.51
64841;BME280;51307;52.162;7.560;2022-08-01T04:35:12;101059.63;;;17.75;98.46
64841;BME280;51307;52.162;7.560;2022-08-01T04:37:44;101064.69;;;17.69;98.39
64841;BME280;51307;52.162;7.560;2022-08-01T04:40:12;101066.72;;;17.67;98.09
64841;BME280;51307;52.162;7.560;2022-08-01T04:42:38;101067.91;;;17.65;98.14
64841;BME280;51307;52.162;7.560;2022-08-01T04:45:04;101070.38;;;17.66;98.33
64841;BME280;51307;52.162;7.560;2022-08-01T04:47:30;101065.44;;;17.63;98.20
64841;BME280;51307;52.162;7.560;2022-08-01T04:49:57;101082.31;;;17.62;98.40
64841;BME280;51307;52.162;7.560;2022-08-01T04:52:22;101076.03;;;17.63;98.08
64841;BME280;51307;52.162;7.560;2022-08-01T04:54:48;101080.53;;;17.69;98.14
64841;BME280;51307;52.162;7.560;2022-08-01T04:57:13;101080.34;;;17.71;98.16
64841;BME280;51307;52.162;7.560;2022-08-01T04:59:43;101083.41;;;17.75;98.07
64841;BME280;51307;52.162;7.560;2022-08-01T05:02:15;101091.78;;;17.78;97.71
64841;BME280;51307;52.162;7.560;2022-08-01T05:04:42;101093.59;;;17.78;97.55
64841;BME280;51307;52.162;7.560;2022-08-01T05:07:09;101092.56;;;17.79;97.29
64841;BME280;51307;52.162;7.560;2022-08-01T05:09:36;101087.69;;;17.76;97.36
64841;BME280;51307;52.162;7.560;2022-08-01T05:12:04;101090.91;;;17.71;97.10
64841;BME280;51307;52.162;7.560;2022-08-01T05:14:31;101087.25;;;17.72;97.41
64841;BME280;51307;52.162;7.560;2022-08-01T05:17:03;101089.72;;;17.74;97.14
64841;BME280;51307;52.162;7.560;2022-08-01T05:19:30;101092.16;;;17.75;97.12
64841;BME280;51307;52.162;7.560;2022-08-01T05:21:58;101095.56;;;17.69;96.86
64841;BME280;51307;52.162;7.560;2022-08-01T05:24:24;101100.66;;;17.70;96.71
64841;BME280;51307;52.162;7.560;2022-08-01T05:26:49;101100.41;;;17.65;96.49
64841;BME280;51307;52.162;7.560;2022-08-01T05:29:15;101096.38;;;17.69;97.22
64841;BME280;51307;52.162;7.560;2022-08-01T05:31:41;101099.47;;;17.73;97.00
64841;BME280;51307;52.162;7.560;2022-08-01T05:34:06;101100.09;;;17.75;96.87
64841;BME280;51307;52.162;7.560;2022-08-01T05:36:32;101106.13;;;17.69;96.08
64841;BME280;51307;52.162;7.560;2022-08-01T05:38:57;101106.94;;;17.69;96.15
64841;BME280;51307;52.162;7.560;2022-08-01T05:41:23;101106.13;;;17.69;96.46
64841;BME280;51307;52.162;7.560;2022-08-01T05:43:48;101108.78;;;17.69;96.91
64841;BME280;51307;52.162;7.560;2022-08-01T05:46:14;101108.38;;;17.72;97.31
64841;BME280;51307;52.162;7.560;2022-08-01T05:48:39;101109.44;;;17.78;97.34
64841;BME280;51307;52.162;7.560;2022-08-01T05:51:05;101110.06;;;17.80;97.01
64841;BME280;51307;52.162;7.560;2022-08-01T05:53:31;101103.78;;;17.81;96.83
64841;BME280;51307;52.162;7.560;2022-08-01T05:56:00;101107.44;;;17.80;96.28
64841;BME280;51307;52.162;7.560;2022-08-01T05:58:26;101112.50;;;17.81;96.06
64841;BME280;51307;52.162;7.560;2022-08-01T06:00:52;101113.34;;;17.82;96.07
64841;BME280;51307;52.162;7.560;2022-08-01T06:03:18;101111.91;;;17.79;96.11
64841;BME280;51307;52.162;7.560;2022-08-01T06:05:43;101124.28;;;17.79;95.85
64841;BME280;51307;52.162;7.560;2022-08-01T06:08:09;101122.03;;;17.76;95.04
64841;BME280;51307;52.162;7.560;2022-08-01T06:10:35;101121.41;;;17.74;94.86
64841;BME280;51307;52.162;7.560;2022-08-01T06:13:00;101129.91;;;17.69;95.37
64841;BME280;51307;52.162;7.560;2022-08-01T06:15:32;101125.38;;;17.63;95.83
64841;BME280;51307;52.162;7.560;2022-08-01T06:17:57;101128.59;;;17.58;95.45
64841;BME280;51307;52.162;7.560;2022-08-01T06:20:23;101133.25;;;17.56;95.19
64841;BME280;51307;52.162;7.560;2022-08-01T06:22:49;101130.63;;;17.56;95.64
64841;BME280;51307;52.162;7.560;2022-08-01T06:25:17;101130.44;;;17.58;96.01
64841;BME280;51307;52.162;7.560;2022-08-01T06:27:43;101135.72;;;17.58;96.00
64841;BME280;51307;52.162;7.560;2022-08-01T06:30:09;101136.53;;;17.58;96.00
64841;BME280;51307;52.162;7.560;2022-08-01T06:32:35;101135.53;;;17.59;96.23
64841;BME280;51307;52.162;7.560;2022-08-01T06:35:00;101129.03;;;17.62;96.39
64841;BME280;51307;52.162;7.560;2022-08-01T06:37:30;101131.75;;;17.68;96.36
64841;BME280;51307;52.162;7.560;2022-08-01T06:40:01;101133.34;;;17.69;96.47
64841;BME280;51307;52.162;7.560;2022-08-01T06:42:26;101148.56;;;17.67;96.37
64841;BME280;51307;52.162;7.560;2022-08-01T06:44:52;101149.53;;;17.60;96.42
64841;BME280;51307;52.162;7.560;2022-08-01T06:47:17;101142.63;;;17.59;96.80
64841;BME280;51307;52.162;7.560;2022-08-01T06:49:43;101145.06;;;17.60;96.73
64841;BME280;51307;52.162;7.560;2022-08-01T06:52:08;101155.00;;;17.58;96.86
64841;BME280;51307;52.162;7.560;2022-08-01T06:54:34;101151.28;;;17.53;96.82
64841;BME280;51307;52.162;7.560;2022-08-01T06:56:59;101156.38;;;17.54;97.35
64841;BME280;51307;52.162;7.560;2022-08-01T06:59:25;101157.34;;;17.46;96.83
64841;BME280;51307;52.162;7.560;2022-08-01T07:01:50;101156.97;;;17.49;97.86
64841;BME280;51307;52.162;7.560;2022-08-01T07:04:16;101154.31;;;17.49;97.95
64841;BME280;51307;52.162;7.560;2022-08-01T07:06:41;101160.41;;;17.50;97.96
64841;BME280;51307;52.162;7.560;2022-08-01T07:09:06;101150.06;;;17.48;98.03
64841;BME280;51307;52.162;7.560;2022-08-01T07:11:32;101158.16;;;17.47;98.16
64841;BME280;51307;52.162;7.560;2022-08-01T07:13:57;101150.25;;;17.47;98.29
64841;BME280;51307;52.162;7.560;2022-08-01T07:16:24;101156.38;;;17.54;98.52
64841;BME280;51307;52.162;7.560;2022-08-01T07:18:49;101153.81;;;17.61;97.94
64841;BME280;51307;52.162;7.560;2022-08-01T07:21:15;101156.91;;;17.64;97.68
64841;BME280;51307;52.162;7.560;2022-08-01T07:23:40;101153.19;;;17.59;97.26
64841;BME280;51307;52.162;7.560;2022-08-01T07:26:06;101155.63;;;17.60;97.06
64841;BME280;51307;52.162;7.560;2022-08-01T07:28:32;101159.91;;;17.61;96.92
64841;BME280;51307;52.162;7.560;2022-08-01T07:30:58;101162.34;;;17.63;97.33
64841;BME280;51307;52.162;7.560;2022-08-01T07:33:23;101154.44;;;17.63;97.16
64841;BME280;51307;52.162;7.560;2022-08-01T07:35:48;101165.00;;;17.63;97.20
64841;BME280;51307;52.162;7.560;2022-08-01T07:38:14;101168.44;;;17.63;97.39
64841;BME280;51307;52.162;7.560;2022-08-01T07:40:43;101162.97;;;17.65;97.12
64841;BME280;51307;52.162;7.560;2022-08-01T07:43:08;101166.81;;;17.62;96.49
64841;BME280;51307;52.162;7.560;2022-08-01T07:45:34;101173.38;;;17.66;96.65
64841;BME280;51307;52.162;7.560;2022-08-01T07:48:04;101172.75;;;17.64;96.28
64841;BME280;51307;52.162;7.560;2022-08-01T07:50:29;101172.97;;;17.69;96.22
64841;BME280;51307;52.162;7.560;2022-08-01T07:52:55;101184.22;;;17.78;96.25
64841;BME280;51307;52.162;7.560;2022-08-01T07:55:20;101183.81;;;17.81;95.25
64841;BME280;51307;52.162;7.560;2022-08-01T07:57:46;101180.63;;;17.86;95.15
64841;BME280;51307;52.162;7.560;2022-08-01T08:00:12;101176.84;;;17.95;95.49
64841;BME280;51307;52.162;7.560;2022-08-01T08:02:38;101185.19;;;17.99;94.87
64841;BME280;51307;52.162;7.560;2022-08-01T08:05:04;101197.22;;;18.01;93.88
64841;BME280;51307;52.162;7.560;2022-08-01T08:07:31;101189.13;;;18.09;93.77
64841;BME280;51307;52.162;7.560;2022-08-01T08:09:57;101195.66;;;18.14;94.58
64841;BME280;51307;52.162;7.560;2022-08-01T08:12:23;101193.03;;;18.14;94.24
64841;BME280;51307;52.162;7.560;2022-08-01T08:14:48;101195.03;;;18.11;93.64
64841;BME280;51307;52.162;7.560;2022-08-01T08:17:14;101192.41;;;18.11;93.77
64841;BME280;51307;52.162;7.560;2022-08-01T08:19:39;101195.03;;;18.11;93.12
64841;BME280;51307;52.162;7.560;2022-08-01T08:22:07;101203.78;;;18.12;92.22
64841;BME280;51307;52.162;7.560;2022-08-01T08:24:33;101203.53;;;18.07;89.77
64841;BME280;51307;52.162;7.560;2022-08-01T08:27:00;101206.13;;;18.00;88.64
64841;BME280;51307;52.162;7.560;2022-08-01T08:29:28;101216.25;;;17.97;89.25
64841;BME280;51307;52.162;7.560;2022-08-01T08:31:56;101212.19;;;17.94;89.88
64841;BME280;51307;52.162;7.560;2022-08-01T08:34:22;101222.13;;;17.92;90.66
64841;BME280;51307;52.162;7.560;2022-08-01T08:36:48;101220.94;;;17.95;91.30
64841;BME280;51307;52.162;7.560;2022-08-01T08:39:14;101214.47;;;17.97;91.67
64841;BME280;51307;52.162;7.560;2022-08-01T08:41:40;101213.66;;;18.03;91.89
64841;BME280;51307;52.162;7.560;2022-08-01T08:44:07;101214.75;;;18.09;92.41
64841;BME280;51307;52.162;7.560;2022-08-01T08:46:41;101210.31;;;18.16;91.99
64841;BME280;51307;52.162;7.560;2022-08-01T08:49:09;101213.03;;;18.23;90.83
64841;BME280;51307;52.162;7.560;2022-08-01T08:51:38;101223.03;;;18.27;89.81
64841;BME280;51307;52.162;7.560;2022-08-01T08:54:06;101222.47;;;18.32;88.87
64841;BME280;51307;52.162;7.560;2022-08-01T08:56:34;101221.31;;;18.41;88.90
64841;BME280;51307;52.162;7.560;2022-08-01T08:59:02;101222.16;;;18.48;88.60
64841;BME280;51307;52.162;7.560;2022-08-01T09:01:28;101226.41;;;18.49;88.27
64841;BME280;51307;52.162;7.560;2022-08-01T09:03:57;101236.38;;;18.47;87.78
64841;BME280;51307;52.162;7.560;2022-08-01T09:06:24;101234.72;;;18.40;86.84
64841;BME280;51307;52.162;7.560;2022-08-01T09:08:49;101233.41;;;18.29;86.71
64841;BME280;51307;52.162;7.560;2022-08-01T09:11:15;101241.84;;;18.18;86.55
64841;BME280;51307;52.162;7.560;2022-08-01T09:13:41;101242.19;;;18.08;87.08
64841;BME280;51307;52.162;7.560;2022-08-01T09:16:07;101251.50;;;18.04;87.62
64841;BME280;51307;52.162;7.560;2022-08-01T09:18:38;101246.22;;;18.04;88.23
64841;BME280;51307;52.162;7.560;2022-08-01T09:23:45;101257.25;;;18.14;86.36
64841;BME280;51307;52.162;7.560;2022-08-01T09:26:13;101261.38;;;18.17;86.58
64841;BME280;51307;52.162;7.560;2022-08-01T09:28:39;101254.97;;;18.26;86.22
64841;BME280;51307;52.162;7.560;2022-08-01T09:31:13;101256.22;;;18.30;85.56
64841;BME280;51307;52.162;7.560;2022-08-01T09:33:54;101264.38;;;18.35;84.78
64841;BME280;51307;52.162;7.560;2022-08-01T09:36:25;101265.38;;;18.34;85.18
64841;BME280;51307;52.162;7.560;2022-08-01T09:38:53;101271.88;;;18.31;85.00
64841;BME280;51307;52.162;7.560;2022-08-01T09:41:30;101274.47;;;18.25;85.37
64841;BME280;51307;52.162;7.560;2022-08-01T09:43:57;101277.91;;;18.25;86.95
64841;BME280;51307;52.162;7.560;2022-08-01T09:46:23;101273.97;;;18.15;87.61
64841;BME280;51307;52.162;7.560;2022-08-01T09:49:02;101280.88;;;18.16;88.47
64841;BME280;51307;52.162;7.560;2022-08-01T09:51:37;101281.88;;;18.15;88.73
64841;BME280;51307;52.162;7.560;2022-08-01T09:54:05;101287.25;;;18.21;89.07
64841;BME280;51307;52.162;7.560;2022-08-01T09:59:02;101280.00;;;18.30;88.35
64841;BME280;51307;52.162;7.560;2022-08-01T10:01:47;101274.38;;;18.40;87.46
64841;BME280;51307;52.162;7.560;2022-08-01T10:06:43;101283.41;;;18.52;85.82
64841;BME280;51307;52.162;7.560;2022-08-01T10:09:10;101281.41;;;18.54;84.80
64841;BME280;51307;52.162;7.560;2022-08-01T10:11:37;101278.97;;;18.59;85.05
64841;BME280;51307;52.162;7.560;2022-08-01T10:14:06;101283.25;;;18.60;82.84
64841;BME280;51307;52.162;7.560;2022-08-01T10:16:34;101281.22;;;18.62;82.89
64841;BME280;51307;52.162;7.560;2022-08-01T10:19:03;101281.84;;;18.64;83.06
64841;BME280;51307;52.162;7.560;2022-08-01T10:21:33;101286.50;;;18.62;82.93
64841;BME280;51307;52.162;7.560;2022-08-01T10:24:02;101284.03;;;18.54;83.68
64841;BME280;51307;52.162;7.560;2022-08-01T10:26:29;101286.47;;;18.56;83.71
64841;BME280;51307;52.162;7.560;2022-08-01T10:28:57;101285.69;;;18.62;84.25
64841;BME280;51307;52.162;7.560;2022-08-01T10:31:23;101279.66;;;18.68;84.69
64841;BME280;51307;52.162;7.560;2022-08-01T10:33:50;101286.19;;;18.72;84.04
64841;BME280;51307;52.162;7.560;2022-08-01T10:36:19;101283.50;;;18.65;82.69
64841;BME280;51307;52.162;7.560;2022-08-01T10:38:46;101289.78;;;18.64;82.55
64841;BME280;51307;52.162;7.560;2022-08-01T10:41:12;101289.19;;;18.69;82.81
64841;BME280;51307;52.162;7.560;2022-08-01T10:43:41;101277.22;;;18.73;82.51
64841;BME280;51307;52.162;7.560;2022-08-01T10:46:07;101296.22;;;18.83;82.32
64841;BME280;51307;52.162;7.560;2022-08-01T10:48:42;101290.97;;;18.90;81.36
64841;BME280;51307;52.162;7.560;2022-08-01T10:51:08;101297.50;;;18.94;80.00
64841;BME280;51307;52.162;7.560;2022-08-01T10:53:34;101298.94;;;18.97;79.54
64841;BME280;51307;52.162;7.560;2022-08-01T10:56:02;101300.09;;;18.87;78.16
64841;BME280;51307;52.162;7.560;2022-08-01T10:58:38;101299.66;;;18.84;78.40
64841;BME280;51307;52.162;7.560;2022-08-01T11:03:41;101295.81;;;18.86;76.89
64841;BME280;51307;52.162;7.560;2022-08-01T11:06:16;101295.97;;;18.78;75.27
64841;BME280;51307;52.162;7.560;2022-08-01T11:08:50;101297.13;;;18.69;75.42
64841;BME280;51307;52.162;7.560;2022-08-01T11:11:18;101300.44;;;18.78;76.50
64841;BME280;51307;52.162;7.560;2022-08-01T11:16:39;101304.19;;;18.90;73.88
64841;BME280;51307;52.162;7.560;2022-08-01T11:19:06;101302.97;;;18.92;72.19
64841;BME280;51307;52.162;7.560;2022-08-01T11:25:02;101304.44;;;19.02;70.61
64841;BME280;51307;52.162;7.560;2022-08-01T11:27:30;101309.16;;;19.06;70.28
64841;BME280;51307;52.162;7.560;2022-08-01T11:32:34;101298.41;;;19.08;68.41
64841;BME280;51307;52.162;7.560;2022-08-01T11:35:10;101303.91;;;19.13;67.43
64841;BME280;51307;52.162;7.560;2022-08-01T11:37:35;101307.03;;;19.23;67.56
64841;BME280;51307;52.162;7.560;2022-08-01T11:42:42;101304.44;;;19.43;65.49
64841;BME280;51307;52.162;7.560;2022-08-01T11:45:07;101307.91;;;19.50;65.40
64841;BME280;51307;52.162;7.560;2022-08-01T11:47:49;101303.25;;;19.59;65.53
64841;BME280;51307;52.162;7.560;2022-08-01T11:53:02;101301.88;;;19.76;63.50
64841;BME280;51307;52.162;7.560;2022-08-01T11:55:29;101301.06;;;19.83;64.16
64841;BME280;51307;52.162;7.560;2022-08-01T11:58:12;101297.63;;;19.89;64.20
64841;BME280;51307;52.162;7.560;2022-08-01T12:00:38;101308.66;;;19.92;64.76
64841;BME280;51307;52.162;7.560;2022-08-01T12:03:06;101305.34;;;19.84;64.58
64841;BME280;51307;52.162;7.560;2022-08-01T12:05:34;101298.41;;;19.76;64.27
64841;BME280;51307;52.162;7.560;2022-08-01T12:08:03;101302.91;;;19.75;65.24
64841;BME280;51307;52.162;7.560;2022-08-01T12:10:34;101314.53;;;19.88;66.22
64841;BME280;51307;52.162;7.560;2022-08-01T12:13:05;101301.88;;;19.90;64.29
64841;BME280;51307;52.162;7.560;2022-08-01T12:15:34;101307.84;;;19.92;65.17
64841;BME280;51307;52.162;7.560;2022-08-01T12:18:02;101308.88;;;19.98;66.31
64841;BME280;51307;52.162;7.560;2022-08-01T12:20:35;101304.78;;;20.02;66.02
64841;BME280;51307;52.162;7.560;2022-08-01T12:23:04;101307.03;;;20.05;64.87
64841;BME280;51307;52.162;7.560;2022-08-01T12:25:34;101300.50;;;20.07;65.64
64841;BME280;51307;52.162;7.560;2022-08-01T12:28:02;101312.72;;;20.15;65.91
64841;BME280;51307;52.162;7.560;2022-08-01T12:30:29;101311.09;;;20.14;64.48
64841;BME280;51307;52.162;7.560;2022-08-01T12:33:07;101316.41;;;20.14;65.51
64841;BME280;51307;52.162;7.560;2022-08-01T12:35:35;101299.88;;;20.19;65.54
64841;BME280;51307;52.162;7.560;2022-08-01T12:38:15;101306.41;;;20.16;65.31
64841;BME280;51307;52.162;7.560;2022-08-01T12:40:43;101305.38;;;20.10;66.18
64841;BME280;51307;52.162;7.560;2022-08-01T12:43:10;101306.63;;;20.08;65.50
64841;BME280;51307;52.162;7.560;2022-08-01T12:45:43;101313.75;;;20.01;65.94
64841;BME280;51307;52.162;7.560;2022-08-01T12:48:14;101322.50;;;20.01;66.03
64841;BME280;51307;52.162;7.560;2022-08-01T12:50:42;101312.13;;;20.06;65.99
64841;BME280;51307;52.162;7.560;2022-08-01T12:53:09;101321.72;;;20.21;66.78
64841;BME280;51307;52.162;7.560;2022-08-01T12:55:46;101302.53;;;20.32;65.11
64841;BME280;51307;52.162;7.560;2022-08-01T12:58:15;101304.56;;;20.30;64.41
64841;BME280;51307;52.162;7.560;2022-08-01T13:00:44;101314.19;;;20.31;64.98
64841;BME280;51307;52.162;7.560;2022-08-01T13:03:13;101309.50;;;20.26;64.17
64841;BME280;51307;52.162;7.560;2022-08-01T13:08:24;101314.38;;;20.16;64.19
64841;BME280;51307;52.162;7.560;2022-08-01T13:10:51;101315.78;;;20.12;64.03
64841;BME280;51307;52.162;7.560;2022-08-01T13:13:43;101316.41;;;20.14;64.13
64841;BME280;51307;52.162;7.560;2022-08-01T13:16:12;101322.34;;;20.23;65.05
64841;BME280;51307;52.162;7.560;2022-08-01T13:18:38;101327.81;;;20.28;64.57
64841;BME280;51307;52.162;7.560;2022-08-01T13:23:36;101324.19;;;20.22;63.89
64841;BME280;51307;52.162;7.560;2022-08-01T13:26:03;101323.75;;;20.19;63.76
64841;BME280;51307;52.162;7.560;2022-08-01T13:28:29;101323.38;;;20.22;64.47
64841;BME280;51307;52.162;7.560;2022-08-01T13:31:04;101321.53;;;20.29;64.28
64841;BME280;51307;52.162;7.560;2022-08-01T13:33:45;101310.69;;;20.30;63.62
64841;BME280;51307;52.162;7.560;2022-08-01T13:36:12;101316.41;;;20.41;64.35
64841;BME280;51307;52.162;7.560;2022-08-01T13:38:39;101308.84;;;20.51;62.93